createdAt,value
2023-01-06T00:00:41.484Z,17.27
2023-01-06T00:03:13.613Z,17.40
2023-01-06T00:05:45.571Z,19.50
2023-01-06T00:08:17.571Z,21.23
2023-01-06T00:10:49.490Z,22.42
2023-01-06T00:13:22.119Z,20.55
2023-01-06T00:15:55.571Z,22.38
2023-01-06T00:18:27.646Z,20.52
2023-01-06T00:21:01.564Z,20.27
2023-01-06T00:23:34.902Z,21.88
2023-01-06T00:26:09.170Z,23.15
2023-01-06T00:28:41.239Z,20.67
2023-01-06T00:31:16.174Z,25.67
2023-01-06T00:33:48.412Z,21.85
2023-01-06T00:36:21.846Z,23.75
2023-01-06T00:38:53.978Z,22.08
2023-01-06T00:41:44.301Z,23.55
2023-01-06T00:46:48.187Z,23.30
2023-01-06T00:49:20.150Z,25.27
2023-01-06T00:51:52.750Z,25.15
2023-01-06T00:54:24.916Z,23.05
2023-01-06T00:56:57.011Z,24.20
2023-01-06T00:59:29.195Z,27.17
2023-01-06T01:02:01.885Z,23.85
2023-01-06T01:04:35.743Z,25.55
2023-01-06T01:07:08.245Z,26.67
2023-01-06T01:09:40.182Z,26.88
2023-01-06T01:12:12.757Z,28.38
2023-01-06T01:14:51.336Z,25.50
2023-01-06T01:17:27.724Z,26.30
2023-01-06T01:20:01.189Z,26.98
2023-01-06T01:22:33.320Z,27.05
2023-01-06T01:25:05.899Z,29.75
2023-01-06T01:27:37.835Z,30.65
2023-01-06T01:30:10.477Z,28.45
2023-01-06T01:32:42.396Z,28.92
2023-01-06T01:35:14.767Z,27.40
2023-01-06T01:37:46.679Z,28.45
2023-01-06T01:40:18.612Z,29.50
2023-01-06T01:42:50.545Z,28.42
2023-01-06T01:45:27.346Z,29.50
2023-01-06T01:48:13.744Z,29.27
2023-01-06T01:50:51.980Z,29.52
2023-01-06T01:53:29.146Z,28.70
2023-01-06T01:56:07.334Z,29.75
2023-01-06T01:58:46.553Z,30.38
2023-01-06T02:01:18.884Z,31.35
2023-01-06T02:03:51.870Z,29.92
2023-01-06T02:06:26.014Z,30.92
2023-01-06T02:09:24.752Z,31.13
2023-01-06T02:11:57.945Z,30.98
2023-01-06T02:14:30.397Z,33.00
2023-01-06T02:17:16.942Z,28.58
2023-01-06T02:20:16.108Z,29.17
2023-01-06T02:23:23.038Z,30.13
2023-01-06T02:26:38.658Z,30.45
2023-01-06T02:29:30.650Z,27.67
2023-01-06T02:32:40.976Z,30.70
2023-01-06T02:35:48.397Z,28.23
2023-01-06T02:38:44.827Z,27.15
2023-01-06T02:41:33.906Z,27.25
2023-01-06T02:44:36.489Z,28.70
2023-01-06T02:47:35.126Z,26.27
2023-01-06T02:50:14.750Z,25.35
2023-01-06T02:53:21.351Z,24.23
2023-01-06T02:55:56.646Z,23.35
2023-01-06T02:58:51.425Z,22.25
2023-01-06T03:01:43.441Z,21.85
2023-01-06T03:04:25.367Z,20.77
2023-01-06T03:06:59.563Z,19.27
2023-01-06T03:09:37.687Z,17.90
2023-01-06T03:12:31.130Z,18.90
2023-01-06T03:15:03.443Z,20.10
2023-01-06T03:17:35.627Z,18.52
2023-01-06T03:20:08.793Z,17.85
2023-01-06T03:22:41.862Z,20.55
2023-01-06T03:25:15.136Z,18.00
2023-01-06T03:27:47.208Z,19.38
2023-01-06T03:30:19.587Z,21.45
2023-01-06T03:33:08.620Z,21.13
2023-01-06T03:35:58.651Z,21.17
2023-01-06T03:38:45.759Z,20.45
2023-01-06T03:41:58.678Z,19.77
2023-01-06T03:44:42.889Z,19.25
2023-01-06T03:47:50.283Z,18.25
2023-01-06T03:50:32.885Z,18.55
2023-01-06T03:53:29.122Z,18.50
2023-01-06T03:56:33.728Z,18.98
2023-01-06T03:59:11.410Z,17.50
2023-01-06T04:01:44.467Z,18.42
2023-01-06T04:04:18.477Z,16.00
2023-01-06T04:06:50.451Z,15.30
2023-01-06T04:09:22.749Z,14.73
2023-01-06T04:12:13.365Z,14.55
2023-01-06T04:14:45.322Z,13.98
2023-01-06T04:17:17.276Z,13.93
2023-01-06T04:19:49.188Z,13.23
2023-01-06T04:22:21.147Z,12.48
2023-01-06T04:24:53.199Z,12.82
2023-01-06T04:27:25.324Z,12.70
2023-01-06T04:29:57.270Z,14.07
2023-01-06T04:32:29.261Z,13.98
2023-01-06T04:35:01.210Z,13.02
2023-01-06T04:37:34.025Z,13.23
2023-01-06T04:40:07.846Z,13.85
2023-01-06T04:42:58.085Z,14.02
2023-01-06T04:45:30.105Z,15.30
2023-01-06T04:48:02.233Z,15.30
2023-01-06T04:50:34.620Z,15.93
2023-01-06T04:53:07.636Z,15.15
2023-01-06T04:55:41.056Z,15.80
2023-01-06T04:58:13.090Z,17.83
2023-01-06T05:00:45.081Z,17.73
2023-01-06T05:03:17.063Z,16.67
2023-01-06T05:05:49.003Z,17.23
2023-01-06T05:08:21.258Z,18.67
2023-01-06T05:11:04.284Z,17.52
2023-01-06T05:13:36.879Z,18.52
2023-01-06T05:16:15.094Z,18.23
2023-01-06T05:18:47.251Z,19.00
2023-01-06T05:21:19.207Z,17.83
2023-01-06T05:23:52.351Z,17.60
2023-01-06T05:26:27.672Z,17.20
2023-01-06T05:28:59.635Z,16.90
2023-01-06T05:31:31.650Z,16.33
2023-01-06T05:34:03.615Z,17.23
2023-01-06T05:36:35.541Z,16.60
2023-01-06T05:39:07.494Z,16.17
2023-01-06T05:41:39.471Z,14.95
2023-01-06T05:44:11.471Z,14.82
2023-01-06T05:46:43.648Z,15.25
2023-01-06T05:49:15.785Z,14.30
2023-01-06T05:51:48.389Z,14.77
2023-01-06T05:54:20.335Z,14.00
2023-01-06T05:56:52.243Z,13.18
2023-01-06T05:59:24.173Z,13.88
2023-01-06T06:01:56.120Z,13.00
2023-01-06T06:04:28.094Z,11.75
2023-01-06T06:07:00.045Z,12.02
2023-01-06T06:09:31.980Z,11.00
2023-01-06T06:12:04.202Z,11.75
2023-01-06T06:14:36.207Z,10.15
2023-01-06T06:17:08.136Z,11.02
2023-01-06T06:19:40.074Z,10.55
2023-01-06T06:22:12.040Z,10.13
2023-01-06T06:24:44.001Z,9.68
2023-01-06T06:27:15.997Z,8.88
2023-01-06T06:29:47.981Z,9.25
2023-01-06T06:32:19.924Z,9.95
2023-01-06T06:34:51.874Z,9.77
2023-01-06T06:37:23.818Z,9.23
2023-01-06T06:39:55.737Z,7.97
2023-01-06T06:42:27.683Z,8.60
2023-01-06T06:44:59.630Z,7.93
2023-01-06T06:47:31.560Z,7.07
2023-01-06T06:50:03.811Z,8.05
2023-01-06T06:52:35.771Z,6.00
2023-01-06T06:55:08.356Z,8.07
2023-01-06T06:57:40.674Z,6.45
2023-01-06T07:00:13.608Z,6.32
2023-01-06T07:02:49.386Z,6.22
2023-01-06T07:05:21.367Z,6.40
2023-01-06T07:07:53.309Z,6.53
2023-01-06T07:10:25.302Z,5.47
2023-01-06T07:12:57.214Z,5.80
2023-01-06T07:15:29.354Z,5.53
2023-01-06T07:18:06.626Z,5.57
2023-01-06T07:20:39.504Z,4.50
2023-01-06T07:23:11.427Z,4.63
2023-01-06T07:25:43.455Z,3.58
2023-01-06T07:28:15.428Z,4.47
2023-01-06T07:30:47.731Z,4.05
2023-01-06T07:33:20.721Z,3.17
2023-01-06T07:35:55.612Z,3.17
2023-01-06T07:38:27.574Z,3.35
2023-01-06T07:41:01.584Z,3.30
2023-01-06T07:43:33.521Z,3.88
2023-01-06T07:46:05.619Z,2.53
2023-01-06T07:48:37.850Z,2.97
2023-01-06T07:51:09.850Z,4.28
2023-01-06T07:53:41.950Z,2.90
2023-01-06T07:56:14.644Z,2.53
2023-01-06T07:58:46.648Z,3.42
2023-01-06T08:01:18.718Z,2.90
2023-01-06T08:03:50.732Z,2.70
2023-01-06T08:06:22.748Z,3.25
2023-01-06T08:08:54.849Z,2.70
2023-01-06T08:11:26.862Z,3.20
2023-01-06T08:13:58.787Z,3.17
2023-01-06T08:16:30.733Z,3.40
2023-01-06T08:19:05.103Z,2.88
2023-01-06T08:21:37.049Z,4.28
2023-01-06T08:24:09.168Z,3.20
2023-01-06T08:26:41.518Z,3.45
2023-01-06T08:29:13.561Z,3.35
2023-01-06T08:31:45.597Z,3.38
2023-01-06T08:34:17.994Z,3.80
2023-01-06T08:36:50.102Z,3.15
2023-01-06T08:39:22.087Z,3.45
2023-01-06T08:41:54.530Z,4.85
2023-01-06T08:44:26.490Z,4.38
2023-01-06T08:46:58.519Z,3.97
2023-01-06T08:49:30.532Z,3.80
2023-01-06T08:52:02.503Z,4.57
2023-01-06T08:54:34.474Z,4.72
2023-01-06T08:57:08.385Z,4.15
2023-01-06T08:59:40.310Z,4.30
2023-01-06T09:02:12.649Z,5.25
2023-01-06T09:04:44.771Z,4.97
2023-01-06T09:07:16.841Z,5.40
2023-01-06T09:09:48.836Z,5.38
2023-01-06T09:12:21.278Z,5.20
2023-01-06T09:14:53.351Z,5.63
2023-01-06T09:17:25.517Z,5.15
2023-01-06T09:19:57.553Z,5.25
2023-01-06T09:22:29.570Z,4.88
2023-01-06T09:25:01.519Z,5.53
2023-01-06T09:27:33.468Z,4.90
2023-01-06T09:30:07.142Z,4.20
2023-01-06T09:32:39.086Z,4.53
2023-01-06T09:35:11.301Z,4.25
2023-01-06T09:37:43.259Z,4.25
2023-01-06T09:40:18.779Z,4.50
2023-01-06T09:43:15.980Z,4.18
2023-01-06T09:45:54.094Z,3.95
2023-01-06T09:48:33.880Z,4.63
2023-01-06T09:51:07.487Z,3.25
2023-01-06T09:53:50.400Z,4.38
2023-01-06T09:56:25.227Z,4.10
2023-01-06T09:59:13.137Z,3.90
2023-01-06T10:01:50.721Z,4.20
2023-01-06T10:04:29.607Z,3.85
2023-01-06T10:07:17.673Z,4.38
2023-01-06T10:10:18.875Z,4.20
2023-01-06T10:13:10.170Z,3.95
2023-01-06T10:16:11.315Z,4.45
2023-01-06T10:18:59.696Z,4.78
2023-01-06T10:22:01.524Z,4.28
2023-01-06T10:25:19.513Z,4.68
2023-01-06T10:28:12.553Z,6.55
2023-01-06T10:30:52.729Z,5.63
2023-01-06T10:33:34.113Z,4.15
2023-01-06T10:36:14.154Z,5.38
2023-01-06T10:38:50.147Z,4.43
2023-01-06T10:41:51.017Z,3.75
2023-01-06T10:44:23.815Z,3.40
2023-01-06T10:46:55.861Z,2.83
2023-01-06T10:49:27.901Z,2.10
2023-01-06T10:52:03.514Z,1.83
2023-01-06T10:54:39.000Z,3.80
2023-01-06T10:57:37.184Z,2.20
2023-01-06T11:00:14.883Z,1.58
2023-01-06T11:02:51.059Z,2.28
2023-01-06T11:05:26.230Z,1.60
2023-01-06T11:08:12.906Z,1.65
2023-01-06T11:10:50.807Z,2.70
2023-01-06T11:13:36.625Z,1.55
2023-01-06T11:16:21.936Z,1.63
2023-01-06T11:19:25.474Z,1.48
2023-01-06T11:21:57.440Z,1.60
2023-01-06T11:24:30.641Z,1.48
2023-01-06T11:27:16.677Z,1.77
2023-01-06T11:29:48.787Z,1.42
2023-01-06T11:32:28.176Z,1.30
2023-01-06T11:35:05.387Z,1.83
2023-01-06T11:37:42.909Z,1.20
2023-01-06T11:40:33.851Z,1.70
2023-01-06T11:43:16.880Z,1.73
2023-01-06T11:46:04.800Z,1.33
2023-01-06T11:48:43.858Z,1.10
2023-01-06T11:51:32.118Z,1.13
2023-01-06T11:54:22.427Z,1.80
2023-01-06T12:00:27.155Z,1.98
2023-01-06T12:03:25.477Z,1.40
2023-01-06T12:06:32.479Z,1.33
2023-01-06T12:09:14.669Z,1.30
2023-01-06T12:11:50.448Z,1.33
2023-01-06T12:14:31.052Z,1.20
2023-01-06T12:17:32.977Z,1.30
2023-01-06T12:20:23.284Z,1.52
2023-01-06T12:23:03.083Z,1.70
2023-01-06T12:25:45.336Z,1.35
2023-01-06T12:28:39.779Z,2.13
2023-01-06T12:31:42.251Z,1.55
2023-01-06T12:34:24.696Z,1.60
2023-01-06T12:37:16.742Z,1.65
2023-01-06T12:40:05.688Z,2.35
2023-01-06T12:43:12.557Z,1.45
2023-01-06T12:46:01.220Z,2.25
2023-01-06T12:48:45.688Z,2.20
2023-01-06T12:51:44.590Z,1.45
2023-01-06T12:54:31.332Z,1.48
2023-01-06T12:57:18.380Z,1.50
2023-01-06T13:00:18.151Z,1.90
2023-01-06T13:03:19.526Z,1.77
2023-01-06T13:06:07.021Z,1.67
2023-01-06T13:09:19.154Z,1.40
2023-01-06T13:12:41.894Z,1.80
2023-01-06T13:15:29.601Z,1.88
2023-01-06T13:18:19.426Z,2.33
2023-01-06T13:20:59.094Z,1.45
2023-01-06T13:24:00.265Z,1.80
2023-01-06T13:27:04.855Z,2.15
2023-01-06T13:30:10.288Z,1.30
2023-01-06T13:33:22.035Z,1.67
2023-01-06T13:36:22.671Z,2.10
2023-01-06T13:39:25.925Z,1.80
2023-01-06T13:42:00.912Z,1.63
2023-01-06T13:44:38.165Z,1.45
2023-01-06T13:47:17.659Z,2.00
2023-01-06T13:49:50.978Z,4.03
2023-01-06T13:52:30.485Z,2.00
2023-01-06T13:55:26.184Z,1.55
2023-01-06T13:58:24.418Z,1.70
2023-01-06T14:01:21.114Z,1.70
2023-01-06T14:03:53.211Z,1.40
2023-01-06T14:06:25.244Z,1.95
2023-01-06T14:09:00.571Z,2.08
2023-01-06T14:11:37.796Z,1.75
2023-01-06T14:14:29.620Z,1.35
2023-01-06T14:17:01.751Z,1.67
2023-01-06T14:19:38.743Z,2.05
2023-01-06T14:22:18.858Z,1.80
2023-01-06T14:24:55.295Z,3.08
2023-01-06T14:27:46.285Z,2.35
2023-01-06T14:30:34.802Z,2.72
2023-01-06T14:33:35.545Z,2.08
2023-01-06T14:36:15.429Z,3.10
2023-01-06T14:38:52.585Z,2.70
2023-01-06T14:41:43.414Z,2.70
2023-01-06T14:44:47.269Z,2.60
2023-01-06T14:47:38.676Z,3.28
2023-01-06T14:50:18.454Z,3.90
2023-01-06T14:53:26.391Z,2.67
2023-01-06T14:56:00.242Z,3.75
2023-01-06T14:58:36.669Z,3.70
2023-01-06T15:01:33.767Z,2.67
2023-01-06T15:04:07.668Z,1.98
2023-01-06T15:06:39.772Z,3.10
2023-01-06T15:09:22.165Z,2.28
2023-01-06T15:11:54.630Z,2.53
2023-01-06T15:14:29.075Z,3.25
2023-01-06T15:17:07.639Z,2.40
2023-01-06T15:19:44.348Z,5.00
2023-01-06T15:22:25.344Z,3.83
2023-01-06T15:24:57.536Z,3.05
2023-01-06T15:27:29.586Z,2.78
2023-01-06T15:30:01.590Z,3.30
2023-01-06T15:32:34.912Z,2.67
2023-01-06T15:35:12.635Z,3.20
2023-01-06T15:37:47.061Z,2.42
2023-01-06T15:40:21.789Z,2.20
2023-01-06T15:42:53.778Z,3.00
2023-01-06T15:45:35.195Z,2.72
2023-01-06T15:48:21.379Z,2.67
2023-01-06T15:50:53.525Z,1.95
2023-01-06T15:53:32.701Z,3.00
2023-01-06T15:56:06.203Z,2.70
2023-01-06T15:58:39.952Z,2.25
2023-01-06T16:01:16.041Z,2.10
2023-01-06T16:03:53.711Z,2.75
2023-01-06T16:06:40.827Z,2.35
2023-01-06T16:09:30.698Z,2.97
2023-01-06T16:12:18.117Z,2.70
2023-01-06T16:14:50.453Z,2.28
2023-01-06T16:17:33.579Z,2.28
2023-01-06T16:20:22.104Z,2.45
2023-01-06T16:22:55.724Z,2.17
2023-01-06T16:25:32.501Z,2.20
2023-01-06T16:28:20.770Z,3.22
2023-01-06T16:31:12.605Z,3.30
2023-01-06T16:33:48.363Z,2.40
2023-01-06T16:36:21.233Z,2.40
2023-01-06T16:38:53.174Z,2.70
2023-01-06T16:41:25.162Z,2.42
2023-01-06T16:43:57.103Z,2.63
2023-01-06T16:46:30.182Z,2.08
2023-01-06T16:49:09.777Z,3.17
2023-01-06T16:51:45.698Z,2.75
2023-01-06T16:54:18.775Z,2.55
2023-01-06T16:56:52.281Z,2.90
2023-01-06T16:59:25.728Z,2.10
2023-01-06T17:01:57.820Z,2.50
2023-01-06T17:04:30.003Z,3.10
2023-01-06T17:07:05.708Z,4.07
2023-01-06T17:09:37.728Z,2.53
2023-01-06T17:12:37.486Z,3.25
2023-01-06T17:15:12.588Z,2.97
2023-01-06T17:17:44.634Z,2.47
2023-01-06T17:20:17.073Z,3.38
2023-01-06T17:22:51.372Z,3.88
2023-01-06T17:25:23.963Z,2.92
2023-01-06T17:27:56.050Z,3.47
2023-01-06T17:30:28.110Z,3.88
2023-01-06T17:33:00.144Z,3.05
2023-01-06T17:35:32.523Z,3.15
2023-01-06T17:38:25.923Z,3.20
2023-01-06T17:40:58.305Z,3.95
2023-01-06T17:43:33.773Z,3.40
2023-01-06T17:46:36.015Z,4.25
2023-01-06T17:49:31.352Z,4.32
2023-01-06T17:52:22.247Z,3.10
2023-01-06T17:55:17.250Z,4.18
2023-01-06T17:57:49.445Z,3.90
2023-01-06T18:00:34.503Z,3.60
2023-01-06T18:03:12.863Z,4.00
2023-01-06T18:05:45.191Z,3.92
2023-01-06T18:08:18.060Z,3.28
2023-01-06T18:11:05.472Z,3.72
2023-01-06T18:13:40.209Z,6.53
2023-01-06T18:16:33.102Z,4.70
2023-01-06T18:19:31.642Z,3.83
2023-01-06T18:22:25.486Z,3.00
2023-01-06T18:25:00.733Z,3.22
2023-01-06T18:27:34.825Z,3.28
2023-01-06T18:30:23.115Z,3.03
2023-01-06T18:32:59.091Z,3.25
2023-01-06T18:35:31.056Z,3.53
2023-01-06T18:38:06.212Z,3.90
2023-01-06T18:40:39.599Z,3.10
2023-01-06T18:43:28.033Z,3.65
2023-01-06T18:46:02.587Z,3.10
2023-01-06T18:48:34.950Z,3.17
2023-01-06T18:51:22.813Z,3.42
2023-01-06T18:53:54.796Z,2.97
2023-01-06T18:56:27.210Z,3.15
2023-01-06T18:59:00.217Z,3.35
2023-01-06T19:01:49.366Z,4.35
2023-01-06T19:04:33.039Z,4.65
2023-01-06T19:07:28.971Z,3.47
2023-01-06T19:10:01.984Z,4.88
2023-01-06T19:12:39.225Z,3.72
2023-01-06T19:15:25.486Z,4.30
2023-01-06T19:17:57.457Z,5.35
2023-01-06T19:20:35.172Z,5.45
2023-01-06T19:23:20.072Z,4.90
2023-01-06T19:26:21.512Z,4.70
2023-01-06T19:29:01.816Z,4.63
2023-01-06T19:34:14.710Z,5.85
2023-01-06T19:36:52.606Z,6.00
2023-01-06T19:39:30.839Z,5.28
2023-01-06T19:42:08.374Z,5.88
2023-01-06T19:44:41.244Z,6.03
2023-01-06T19:47:24.403Z,6.05
2023-01-06T19:50:00.917Z,5.70
2023-01-06T19:52:39.615Z,5.80
2023-01-06T19:55:29.276Z,6.18
2023-01-06T19:58:13.004Z,5.65
2023-01-06T20:00:54.411Z,6.13
2023-01-06T20:03:38.743Z,5.53
2023-01-06T20:06:11.024Z,5.78
2023-01-06T20:08:44.085Z,5.45
2023-01-06T20:11:16.559Z,5.47
2023-01-06T20:13:49.127Z,5.28
2023-01-06T20:16:21.824Z,5.57
2023-01-06T20:18:53.871Z,6.10
2023-01-06T20:21:25.867Z,6.22
2023-01-06T20:23:58.570Z,6.10
2023-01-06T20:26:30.559Z,5.85
2023-01-06T20:29:04.507Z,6.22
2023-01-06T20:31:36.691Z,5.70
2023-01-06T20:34:08.683Z,6.03
2023-01-06T20:36:41.033Z,5.90
2023-01-06T20:39:15.211Z,6.20
2023-01-06T20:41:47.248Z,5.57
2023-01-06T20:44:19.269Z,6.55
2023-01-06T20:46:51.236Z,5.82
2023-01-06T20:49:23.249Z,5.75
2023-01-06T20:51:55.692Z,5.07
2023-01-06T20:54:27.678Z,5.28
2023-01-06T20:56:59.681Z,5.00
2023-01-06T20:59:31.782Z,5.50
2023-01-06T21:02:04.457Z,6.47
2023-01-06T21:04:36.602Z,6.65
2023-01-06T21:07:08.897Z,7.53
2023-01-06T21:09:40.942Z,6.13
2023-01-06T21:12:12.956Z,6.30
2023-01-06T21:14:45.015Z,6.60
2023-01-06T21:17:17.004Z,6.68
2023-01-06T21:19:51.725Z,5.82
2023-01-06T21:22:23.758Z,5.65
2023-01-06T21:24:55.848Z,4.70
2023-01-06T21:27:27.803Z,6.13
2023-01-06T21:29:59.763Z,6.35
2023-01-06T21:32:31.804Z,5.45
2023-01-06T21:35:04.133Z,6.13
2023-01-06T21:37:36.425Z,6.15
2023-01-06T21:40:09.656Z,5.85
2023-01-06T21:43:00.475Z,6.57
2023-01-06T21:45:32.654Z,6.43
2023-01-06T21:48:05.934Z,7.20
2023-01-06T21:50:43.062Z,7.68
2023-01-06T21:53:15.120Z,8.73
2023-01-06T21:55:47.102Z,9.07
2023-01-06T21:58:19.462Z,9.15
2023-01-06T22:00:51.580Z,9.52
2023-01-06T22:03:23.698Z,9.25
2023-01-06T22:05:56.849Z,10.27
2023-01-06T22:08:31.595Z,11.02
2023-01-06T22:11:04.747Z,11.30
2023-01-06T22:13:39.659Z,11.02
2023-01-06T22:16:12.377Z,11.98
2023-01-06T22:18:44.459Z,11.88
2023-01-06T22:21:17.111Z,12.18
2023-01-06T22:23:50.533Z,15.38
2023-01-06T22:26:22.684Z,14.13
2023-01-06T22:28:54.662Z,14.90
2023-01-06T22:31:26.712Z,13.65
2023-01-06T22:33:58.705Z,14.52
2023-01-06T22:36:30.911Z,13.00
2023-01-06T22:39:03.163Z,12.75
2023-01-06T22:41:35.374Z,16.10
2023-01-06T22:44:07.512Z,14.65
2023-01-06T22:46:41.208Z,14.98
2023-01-06T22:49:13.314Z,15.23
2023-01-06T22:51:45.789Z,15.40
2023-01-06T22:54:17.962Z,15.07
2023-01-06T22:56:49.939Z,16.10
2023-01-06T22:59:21.979Z,15.60
2023-01-06T23:01:54.414Z,16.13
2023-01-06T23:04:26.688Z,14.77
2023-01-06T23:06:58.727Z,16.13
2023-01-06T23:09:30.678Z,17.15
2023-01-06T23:12:02.684Z,17.08
2023-01-06T23:14:34.746Z,16.63
2023-01-06T23:17:06.758Z,16.45
2023-01-06T23:19:38.776Z,16.77
2023-01-06T23:22:10.809Z,19.58
2023-01-06T23:24:42.919Z,16.90
2023-01-06T23:27:15.225Z,16.00
2023-01-06T23:29:47.257Z,16.52
2023-01-06T23:32:20.378Z,17.85
2023-01-06T23:34:52.338Z,17.00
2023-01-06T23:37:24.333Z,16.25
2023-01-06T23:39:56.303Z,16.75
2023-01-06T23:42:28.725Z,16.30
2023-01-06T23:45:05.123Z,19.85
2023-01-06T23:47:37.133Z,17.08
2023-01-06T23:50:09.568Z,18.92
2023-01-06T23:52:41.594Z,18.88
2023-01-06T23:55:13.538Z,18.17
2023-01-06T23:57:45.499Z,17.75
